Time;durP1;ratioP1;P1;durP2;ratioP2;P2;SDS_P1;SDS_P2;PMS_P1;PMS_P2;Temp;Humidity;BMP_temperature;BMP_pressure;BME280_temperature;BME280_humidity;BME280_pressure;Samples;Min_cycle;Max_cycle;Signal;HPM_P1;HPM_P2
2022/01/09 00:05:31;;;;;;;;;;;;;;;;;;;;;
2022/01/09 00:35:19;;;;;;;;;;;;;;;;;;;;;
2022/01/09 00:41:35;;;;;;;;;;;;;;;;;;;;;
2022/01/09 00:48:38;;;;;;;;;;;;;;;;;;;;;
2022/01/09 00:51:47;;;;;;;;;;;;;;;;;;;;;
2022/01/09 01:04:41;;;;;;;;;;;;;;;;;;;;;
2022/01/09 01:08:19;;;;;;;;;;;;;;;;;;;;;
2022/01/09 01:10:51;;;;;;;;;;;;;;;;;;;;;
2022/01/09 01:17:23;;;;;;;;;;;;;;;;;;;;;
2022/01/09 01:21:00;;;;;;;4.60;3.30;;;8.80;99.90;;;;;;5014050;28;20026;-76
2022/01/09 01:23:07;;;;;;;10.52;3.50;;;8.90;99.90;;;;;;5010804;28;20034;-77
2022/01/09 01:25:34;;;;;;;12.60;3.63;;;9.00;99.90;;;;;;5019564;28;20018;-77
2022/01/09 01:28:00;;;;;;;12.70;3.75;;;9.00;99.90;;;;;;5018308;28;20022;-77
2022/01/09 01:30:26;;;;;;;17.42;6.53;;;9.00;99.90;;;;;;5017482;28;20026;-76
2022/01/09 01:32:52;;;;;;;15.27;5.95;;;9.00;99.90;;;;;;5018795;28;20104;-77
2022/01/09 01:35:18;;;;;;;16.33;5.03;;;9.00;99.90;;;;;;5019636;28;20029;-77
2022/01/09 01:37:44;;;;;;;23.60;4.22;;;9.00;99.90;;;;;;5018343;28;20057;-77
2022/01/09 01:40:13;;;;;;;15.65;4.43;;;9.00;99.90;;;;;;5019295;28;20018;-77
2022/01/09 01:42:39;;;;;;;13.88;4.75;;;8.90;99.90;;;;;;5019639;28;20034;-77
2022/01/09 01:45:06;;;;;;;14.98;4.10;;;8.90;99.90;;;;;;5018417;28;20031;-76
2022/01/09 01:47:32;;;;;;;11.23;4.50;;;8.90;99.90;;;;;;5019428;28;20034;-77
2022/01/09 01:49:57;;;;;;;17.75;7.25;;;8.90;99.90;;;;;;5018004;28;20026;-78
2022/01/09 01:52:31;;;;;;;15.15;4.47;;;8.90;99.90;;;;;;5018192;28;20026;-77
2022/01/09 01:54:57;;;;;;;12.65;4.28;;;8.80;99.90;;;;;;5019024;28;20068;-77
2022/01/09 01:57:22;;;;;;;13.98;4.43;;;8.80;99.90;;;;;;5019368;28;20030;-77
2022/01/09 01:59:48;;;;;;;20.63;6.75;;;8.80;99.90;;;;;;5019351;28;20018;-76
2022/01/09 02:02:14;;;;;;;13.75;4.38;;;8.90;99.90;;;;;;5017989;28;20026;-77
2022/01/09 02:04:40;;;;;;;16.35;4.30;;;8.90;99.90;;;;;;5019284;28;20026;-76
2022/01/09 02:07:07;;;;;;;22.42;9.20;;;8.80;99.90;;;;;;5017934;28;20026;-77
2022/01/09 02:09:33;;;;;;;12.32;4.80;;;8.80;99.90;;;;;;5018723;28;20114;-77
2022/01/09 02:11:59;;;;;;;19.23;5.38;;;8.90;99.90;;;;;;5017590;28;20494;-77
2022/01/09 02:14:25;;;;;;;24.48;5.13;;;8.90;99.90;;;;;;5017766;28;20049;-77
2022/01/09 02:16:51;;;;;;;16.90;5.03;;;8.90;99.90;;;;;;5017565;28;20498;-77
2022/01/09 02:19:21;;;;;;;20.08;6.40;;;8.90;99.90;;;;;;5017558;28;20025;-77
2022/01/09 02:21:46;;;;;;;20.80;7.43;;;8.90;99.90;;;;;;5018947;28;20030;-77
2022/01/09 02:24:13;;;;;;;22.48;6.13;;;8.90;99.90;;;;;;5017410;28;20114;-77
2022/01/09 02:26:40;;;;;;;25.35;6.28;;;8.80;99.90;;;;;;5018692;28;20056;-77
2022/01/09 02:29:06;;;;;;;23.05;7.30;;;8.90;99.90;;;;;;5018790;28;20022;-77
2022/01/09 02:31:33;;;;;;;23.10;7.55;;;8.90;99.90;;;;;;5017355;28;20842;-77
2022/01/09 02:33:59;;;;;;;27.15;6.63;;;8.90;99.90;;;;;;5018818;28;20014;-77
2022/01/09 02:36:25;;;;;;;23.67;7.22;;;8.90;99.90;;;;;;5017232;28;20037;-77
2022/01/09 02:38:50;;;;;;;29.67;7.43;;;8.90;99.90;;;;;;5018544;28;20022;-77
2022/01/09 02:41:18;;;;;;;27.42;6.93;;;8.90;99.90;;;;;;5018454;28;20061;-77
2022/01/09 02:43:44;;;;;;;34.83;7.07;;;8.90;99.90;;;;;;5018547;28;20372;-77
2022/01/09 02:48:55;;;;;;;26.80;7.57;;;8.80;99.90;;;;;;5018767;28;20438;-77
2022/01/09 02:51:20;;;;;;;35.90;8.13;;;8.90;99.90;;;;;;5018356;28;20025;-78
2022/01/09 02:53:49;;;;;;;35.70;7.88;;;8.80;99.90;;;;;;5018071;28;20069;-77
2022/01/09 02:56:16;;;;;;;34.53;7.80;;;8.80;99.90;;;;;;5016931;28;20057;-76
2022/01/09 02:58:42;;;;;;;31.23;7.78;;;8.80;99.90;;;;;;5018257;28;20034;-77
2022/01/09 03:01:09;;;;;;;37.20;6.97;;;8.80;99.90;;;;;;5018099;28;20030;-77
2022/01/09 03:03:36;;;;;;;35.40;8.20;;;8.80;99.90;;;;;;5016977;28;20482;-77
2022/01/09 03:06:03;;;;;;;30.75;8.70;;;8.80;99.90;;;;;;5017348;28;20018;-77
2022/01/09 03:08:29;;;;;;;37.50;8.48;;;8.80;99.90;;;;;;5017741;28;20049;-77
2022/01/09 03:10:55;;;;;;;35.67;8.70;;;8.80;99.90;;;;;;5017922;28;20029;-77
2022/01/09 03:13:21;;;;;;;36.85;7.32;;;8.80;99.90;;;;;;5017940;28;20033;-77
2022/01/09 03:15:47;;;;;;;32.40;9.35;;;8.80;99.90;;;;;;5017753;28;20109;-77
2022/01/09 03:18:12;;;;;;;37.38;8.15;;;8.80;99.90;;;;;;5016629;28;20117;-77
2022/01/09 03:20:39;;;;;;;40.03;10.35;;;8.80;99.90;;;;;;5016379;28;20591;-77
2022/01/09 03:23:05;;;;;;;44.67;8.98;;;8.80;99.90;;;;;;5016568;28;20036;-77
2022/01/09 03:25:31;;;;;;;32.13;7.97;;;8.80;99.90;;;;;;5016049;28;20025;-77
2022/01/09 03:27:58;;;;;;;42.35;7.30;;;8.80;99.90;;;;;;5017601;28;20033;-78
2022/01/09 03:30:25;;;;;;;34.88;9.25;;;8.80;99.90;;;;;;5017680;28;20035;-76
2022/01/09 03:32:52;;;;;;;38.40;8.93;;;8.90;99.90;;;;;;5016423;28;20486;-78
2022/01/09 03:35:21;;;;;;;41.05;9.88;;;8.80;99.90;;;;;;5017723;28;20022;-77
2022/01/09 03:37:48;;;;;;;40.67;8.95;;;8.90;99.90;;;;;;5016354;28;20026;-77
2022/01/09 03:40:20;;;;;;;50.03;9.48;;;8.90;99.90;;;;;;5017039;28;20087;-77
2022/01/09 03:42:51;;;;;;;39.28;9.30;;;8.80;99.90;;;;;;5016076;28;20040;-77
2022/01/09 03:45:18;;;;;;;18.65;6.25;;;8.80;99.90;;;;;;5016133;28;20022;-77
2022/01/09 03:47:44;;;;;;;30.17;7.50;;;8.80;99.90;;;;;;5016370;28;20030;-77
2022/01/09 03:50:12;;;;;;;47.63;9.55;;;8.80;99.90;;;;;;5017319;28;20026;-76
2022/01/09 03:52:39;;;;;;;43.42;10.57;;;8.80;99.90;;;;;;5016142;28;20033;-77
2022/01/09 03:55:07;;;;;;;29.88;8.60;;;8.80;99.90;;;;;;5015956;28;20613;-78
2022/01/09 03:57:33;;;;;;;31.73;9.73;;;8.80;99.90;;;;;;5017273;28;20072;-78
2022/01/09 03:59:59;;;;;;;28.05;8.90;;;8.80;99.90;;;;;;5016537;28;20026;-77
2022/01/09 04:02:25;;;;;;;48.60;10.32;;;8.80;99.90;;;;;;5017410;28;20034;-77
2022/01/09 04:04:50;;;;;;;43.47;11.18;;;8.70;99.90;;;;;;5016163;28;20049;-77
2022/01/09 04:07:17;;;;;;;40.35;8.73;;;8.80;99.90;;;;;;5017358;28;20040;-77
2022/01/09 04:09:45;;;;;;;47.97;10.93;;;8.70;99.90;;;;;;5017038;28;20050;-77
2022/01/09 04:12:18;;;;;;;53.40;11.10;;;8.70;99.90;;;;;;5015803;28;20026;-77
2022/01/09 04:14:46;;;;;;;51.25;10.65;;;8.70;99.90;;;;;;5016004;28;20026;-78
2022/01/09 04:20:09;;;;;;;52.78;13.38;;;8.70;99.90;;;;;;5024878;28;20528;-77
2022/01/09 04:22:36;;;;;;;40.60;12.25;;;8.70;99.90;;;;;;5053243;28;20030;-77
2022/01/09 04:25:02;;;;;;;44.03;10.07;;;8.70;99.90;;;;;;5052802;28;20401;-79
2022/01/09 04:27:28;;;;;;;48.58;10.02;;;8.70;99.90;;;;;;5052987;28;20052;-77
2022/01/09 04:29:54;;;;;;;47.10;12.98;;;8.70;99.90;;;;;;5019943;28;20026;-77
2022/01/09 04:32:19;;;;;;;41.38;9.30;;;8.70;99.90;;;;;;5021220;28;20057;-77
2022/01/09 04:34:45;;;;;;;47.30;11.45;;;8.70;99.90;;;;;;5019569;28;20072;-77
2022/01/09 04:37:11;;;;;;;47.20;11.05;;;8.70;99.90;;;;;;5007908;28;20060;-77
2022/01/09 04:39:37;;;;;;;47.10;10.48;;;8.70;99.90;;;;;;5019414;28;20108;-77
2022/01/09 04:42:03;;;;;;;41.92;9.50;;;8.70;99.90;;;;;;5019484;28;20028;-77
2022/01/09 04:44:28;;;;;;;41.08;13.20;;;8.70;99.90;;;;;;5019441;28;20387;-78
2022/01/09 04:46:59;;;;;;;44.95;11.02;;;8.70;99.90;;;;;;5020484;28;20033;-78
2022/01/09 04:49:31;;;;;;;56.80;11.38;;;8.70;99.90;;;;;;5020984;28;20045;-78
2022/01/09 04:51:57;;;;;;;55.72;10.68;;;8.70;99.90;;;;;;5019365;28;20026;-78
2022/01/09 04:54:23;;;;;;;48.67;10.85;;;8.70;99.90;;;;;;5018892;28;20041;-78
2022/01/09 04:56:49;;;;;;;52.55;10.52;;;8.70;99.90;;;;;;5019534;28;20405;-78
2022/01/09 04:59:15;;;;;;;54.13;11.52;;;8.60;99.90;;;;;;5020481;28;20176;-77
2022/01/09 05:01:40;;;;;;;49.88;11.25;;;8.70;99.90;;;;;;5019409;28;20057;-77
2022/01/09 05:04:06;;;;;;;51.38;9.13;;;8.60;99.90;;;;;;5020305;28;20080;-77
2022/01/09 05:06:32;;;;;;;53.00;10.05;;;8.60;99.90;;;;;;5018914;28;20414;-77
2022/01/09 05:08:57;;;;;;;45.80;12.48;;;8.70;99.90;;;;;;5019872;28;20104;-77
2022/01/09 05:11:23;;;;;;;42.92;10.48;;;8.70;99.90;;;;;;5020281;28;20026;-77
2022/01/09 05:13:49;;;;;;;46.40;10.18;;;8.70;99.90;;;;;;5020070;28;20022;-77
2022/01/09 05:16:14;;;;;;;44.10;11.07;;;8.60;99.90;;;;;;5020329;28;20026;-76
2022/01/09 05:18:51;;;;;;;43.67;10.20;;;8.70;99.90;;;;;;5020097;28;20025;-78
2022/01/09 05:21:17;;;;;;;57.17;12.75;;;8.60;99.90;;;;;;5052019;28;20576;-78
2022/01/09 05:23:43;;;;;;;34.10;8.00;;;8.60;99.90;;;;;;5019748;28;20022;-77
2022/01/09 05:26:09;;;;;;;38.25;10.35;;;8.60;99.90;;;;;;5018711;28;20045;-77
2022/01/09 05:28:35;;;;;;;44.92;10.45;;;8.70;99.90;;;;;;5017895;28;20022;-78
2022/01/09 05:31:01;;;;;;;48.13;9.70;;;8.60;99.90;;;;;;5015732;28;20105;-77
2022/01/09 05:33:26;;;;;;;73.18;11.20;;;8.60;99.90;;;;;;5018648;28;20026;-78
2022/01/09 05:35:52;;;;;;;66.93;12.48;;;8.70;99.90;;;;;;5019673;28;20034;-77
2022/01/09 05:38:18;;;;;;;46.50;10.55;;;8.70;99.90;;;;;;5019516;28;20026;-77
2022/01/09 05:40:45;;;;;;;56.17;10.30;;;8.60;99.90;;;;;;5018377;28;20034;-77
2022/01/09 05:43:12;;;;;;;56.42;13.43;;;8.70;99.90;;;;;;5019452;28;20018;-77
2022/01/09 05:45:38;;;;;;;55.65;12.98;;;8.60;99.90;;;;;;5018290;28;20033;-77
2022/01/09 05:48:04;;;;;;;47.92;11.23;;;8.60;99.90;;;;;;5019442;28;20029;-78
2022/01/09 05:50:30;;;;;;;56.58;11.52;;;8.60;99.90;;;;;;5019914;28;20403;-77
2022/01/09 05:52:56;;;;;;;49.35;11.43;;;8.70;99.90;;;;;;5018012;28;20065;-77
2022/01/09 05:55:22;;;;;;;55.78;11.40;;;8.70;99.90;;;;;;5019364;28;20030;-77
2022/01/09 05:57:47;;;;;;;47.25;12.80;;;8.70;99.90;;;;;;5019189;28;20401;-77
2022/01/09 06:00:14;;;;;;;47.90;11.45;;;8.70;99.90;;;;;;5019472;28;20111;-76
2022/01/09 06:02:41;;;;;;;50.92;12.55;;;8.60;99.90;;;;;;5014814;28;20022;-77
2022/01/09 06:05:07;;;;;;;52.97;12.88;;;8.70;99.90;;;;;;5019362;28;20041;-77
2022/01/09 06:07:34;;;;;;;50.08;13.60;;;8.60;99.90;;;;;;5017718;28;20029;-77
2022/01/09 06:09:59;;;;;;;47.47;10.63;;;8.60;99.90;;;;;;5018883;28;20056;-78
2022/01/09 06:12:25;;;;;;;50.83;10.75;;;8.60;99.90;;;;;;5018862;28;20018;-77
2022/01/09 06:14:51;;;;;;;52.35;11.23;;;8.60;99.90;;;;;;5017434;28;20034;-77
2022/01/09 06:17:17;;;;;;;51.78;11.88;;;8.70;99.90;;;;;;5019003;28;20500;-77
2022/01/09 06:19:43;;;;;;;43.83;10.40;;;8.60;99.90;;;;;;5017663;28;20044;-78
2022/01/09 06:22:09;;;;;;;72.32;12.93;;;8.70;99.90;;;;;;5017484;28;20036;-77
2022/01/09 06:24:34;;;;;;;42.72;10.65;;;8.60;99.90;;;;;;5018953;28;20026;-77
2022/01/09 06:27:00;;;;;;;56.60;11.48;;;8.60;99.90;;;;;;5018469;28;20030;-77
2022/01/09 06:29:26;;;;;;;52.05;11.05;;;8.60;99.90;;;;;;5017843;28;20034;-77
2022/01/09 06:31:52;;;;;;;48.05;10.00;;;8.60;99.90;;;;;;5017345;28;20101;-77
2022/01/09 06:34:18;;;;;;;45.38;11.30;;;8.60;99.90;;;;;;5018878;28;20029;-78
2022/01/09 06:36:44;;;;;;;59.53;12.43;;;8.70;99.90;;;;;;5018568;28;20028;-77
2022/01/09 06:39:10;;;;;;;48.08;11.38;;;8.70;99.90;;;;;;5018187;28;20081;-77
2022/01/09 06:41:35;;;;;;;57.72;10.93;;;8.70;99.90;;;;;;5017927;28;20022;-77
2022/01/09 06:44:01;;;;;;;40.08;9.45;;;8.70;99.90;;;;;;5017305;28;20030;-77
2022/01/09 06:46:27;;;;;;;48.22;11.80;;;8.70;99.90;;;;;;5018343;28;20474;-77
2022/01/09 06:48:52;;;;;;;42.70;10.45;;;8.80;99.90;;;;;;5018653;28;20041;-77
2022/01/09 06:51:18;;;;;;;51.95;10.38;;;8.80;99.90;;;;;;5017122;28;20022;-77
2022/01/09 06:53:44;;;;;;;53.05;10.95;;;8.80;99.90;;;;;;5016866;28;20026;-77
2022/01/09 06:56:09;;;;;;;49.05;9.90;;;8.80;99.90;;;;;;5018166;28;20410;-77
2022/01/09 06:58:38;;;;;;;44.50;11.10;;;8.80;99.90;;;;;;5018295;28;20062;-77
2022/01/09 07:01:05;;;;;;;58.75;13.45;;;8.80;99.90;;;;;;5016905;28;20030;-78
2022/01/09 07:03:31;;;;;;;48.13;10.05;;;8.80;99.90;;;;;;5018276;28;20022;-77
2022/01/09 07:05:56;;;;;;;42.17;11.07;;;8.80;99.90;;;;;;5016829;28;20072;-77
2022/01/09 07:08:22;;;;;;;43.00;11.32;;;8.80;99.90;;;;;;5016491;28;20060;-77
2022/01/09 07:10:48;;;;;;;53.70;12.93;;;8.80;99.90;;;;;;5018018;28;20442;-77
2022/01/09 07:13:15;;;;;;;66.43;11.25;;;8.80;99.90;;;;;;5017819;28;20026;-77
2022/01/09 07:15:41;;;;;;;50.03;11.02;;;8.80;99.90;;;;;;5016615;28;20113;-78
2022/01/09 07:18:07;;;;;;;41.72;10.57;;;8.80;99.90;;;;;;5017950;28;20033;-78
2022/01/09 07:20:34;;;;;;;37.72;9.90;;;8.80;99.90;;;;;;5017778;28;20482;-77
2022/01/09 07:23:00;;;;;;;49.97;10.18;;;8.80;99.90;;;;;;5016453;28;20026;-77
2022/01/09 07:25:26;;;;;;;58.15;11.43;;;8.80;99.90;;;;;;5017786;28;20075;-78
2022/01/09 07:27:51;;;;;;;35.92;9.48;;;8.70;99.90;;;;;;5017597;28;20029;-77
2022/01/09 07:30:17;;;;;;;55.28;9.60;;;8.70;99.90;;;;;;5016336;28;20026;-78
2022/01/09 07:32:43;;;;;;;42.03;11.38;;;8.70;99.90;;;;;;5017811;28;20021;-78
2022/01/09 07:35:09;;;;;;;46.47;10.38;;;8.60;99.90;;;;;;5016503;28;20029;-77
2022/01/09 07:37:35;;;;;;;64.45;11.63;;;8.60;99.90;;;;;;5017763;28;20025;-78
2022/01/09 07:40:02;;;;;;;59.10;11.93;;;8.60;99.90;;;;;;5016022;28;20029;-78
2022/01/09 07:42:28;;;;;;;57.53;12.48;;;8.50;99.90;;;;;;5017409;28;20014;-78
2022/01/09 07:44:54;;;;;;;64.03;14.32;;;8.50;99.90;;;;;;5016232;28;20061;-78
2022/01/09 07:47:19;;;;;;;53.13;12.20;;;8.40;99.90;;;;;;5017530;28;20490;-78
2022/01/09 07:49:45;;;;;;;49.85;11.98;;;8.40;99.90;;;;;;5016438;28;20112;-78
2022/01/09 07:52:11;;;;;;;58.15;11.95;;;8.30;99.90;;;;;;5016107;28;20093;-77
2022/01/09 07:54:37;;;;;;;64.22;12.32;;;8.30;99.90;;;;;;5017145;28;20026;-78
2022/01/09 07:57:02;;;;;;;45.20;11.00;;;8.20;99.90;;;;;;5017465;28;20026;-78
2022/01/09 07:59:28;;;;;;;66.07;12.27;;;8.20;99.90;;;;;;5016219;28;20030;-77
2022/01/09 08:01:54;;;;;;;67.05;14.32;;;8.20;99.90;;;;;;5016361;28;20022;-78
2022/01/09 08:04:20;;;;;;;68.78;12.93;;;8.20;99.90;;;;;;5017255;28;20026;-78
2022/01/09 08:06:45;;;;;;;67.20;12.02;;;8.20;99.90;;;;;;5016040;28;20026;-78
2022/01/09 08:09:12;;;;;;;55.08;13.77;;;8.20;99.90;;;;;;5016772;28;20077;-78
2022/01/09 08:11:37;;;;;;;48.65;11.85;;;8.30;99.90;;;;;;5017202;28;20022;-77
2022/01/09 08:14:03;;;;;;;58.17;14.35;;;8.20;99.90;;;;;;5017264;28;20022;-77
2022/01/09 08:16:29;;;;;;;37.38;9.57;;;8.30;99.90;;;;;;5015967;28;20030;-78
2022/01/09 08:18:55;;;;;;;41.22;9.50;;;8.30;99.90;;;;;;5015599;28;20036;-76
2022/01/09 08:21:20;;;;;;;32.80;8.45;;;8.20;99.90;;;;;;5017315;28;20022;-77
2022/01/09 08:23:47;;;;;;;44.53;8.57;;;8.20;99.90;;;;;;5016865;28;20026;-76
2022/01/09 08:26:16;;;;;;;36.25;8.25;;;8.10;99.90;;;;;;5017108;28;20037;-76
2022/01/09 08:28:46;;;;;;;31.70;8.70;;;8.10;99.90;;;;;;5017108;28;20030;-77
2022/01/09 08:31:12;;;;;;;31.23;7.73;;;8.00;99.90;;;;;;5016941;28;20433;-76
2022/01/09 08:33:38;;;;;;;36.17;7.40;;;8.00;99.90;;;;;;5015621;28;20071;-77
2022/01/09 08:36:05;;;;;;;29.73;7.78;;;7.90;99.90;;;;;;5015636;28;20033;-77
2022/01/09 08:38:30;;;;;;;36.83;8.23;;;7.90;99.90;;;;;;5016794;28;20048;-77
2022/01/09 08:40:56;;;;;;;32.25;8.23;;;7.90;99.90;;;;;;5017115;28;20033;-77
2022/01/09 08:43:23;;;;;;;38.55;9.73;;;7.90;99.90;;;;;;5016837;28;20403;-76
2022/01/09 08:45:49;;;;;;;41.30;8.70;;;7.90;99.90;;;;;;5015641;28;20034;-77
2022/01/09 08:48:15;;;;;;;39.95;9.07;;;8.00;99.90;;;;;;5015845;28;20018;-77
2022/01/09 08:50:41;;;;;;;27.02;7.47;;;8.00;99.90;;;;;;5016568;28;20041;-77
2022/01/09 08:53:07;;;;;;;28.95;9.00;;;8.00;99.90;;;;;;5016384;28;20049;-77
2022/01/09 08:55:33;;;;;;;30.27;7.80;;;8.00;99.90;;;;;;5017022;28;20026;-76
2022/01/09 08:57:58;;;;;;;21.80;6.05;;;8.00;99.90;;;;;;5015616;28;20025;-78
2022/01/09 09:00:26;;;;;;;30.30;7.25;;;8.00;99.90;;;;;;5017011;28;20022;-77
2022/01/09 09:02:52;;;;;;;35.95;7.85;;;7.90;99.90;;;;;;5017067;28;20044;-75
2022/01/09 09:05:18;;;;;;;18.77;6.20;;;7.90;99.90;;;;;;5020617;28;20104;-76
2022/01/09 09:07:44;;;;;;;32.80;8.40;;;7.90;99.90;;;;;;5020240;28;20029;-76
2022/01/09 09:10:10;;;;;;;19.42;5.10;;;7.90;99.90;;;;;;5018229;28;20046;-75
2022/01/09 09:12:36;;;;;;;30.65;7.63;;;7.90;99.90;;;;;;5020126;28;20556;-76
2022/01/09 09:15:04;;;;;;;33.38;8.60;;;7.90;99.90;;;;;;5019904;28;20444;-75
2022/01/09 09:17:30;;;;;;;20.35;5.70;;;7.90;99.90;;;;;;5020099;28;20482;-75
2022/01/09 09:19:56;;;;;;;31.88;5.63;;;7.90;99.90;;;;;;5020091;28;20057;-75
2022/01/09 09:22:22;;;;;;;22.17;4.65;;;7.90;99.90;;;;;;5018789;28;20022;-75
2022/01/09 09:24:48;;;;;;;27.77;7.60;;;7.90;99.90;;;;;;5018488;28;20030;-75
2022/01/09 09:27:15;;;;;;;20.17;6.30;;;7.90;99.90;;;;;;5019160;28;20402;-74
2022/01/09 09:29:41;;;;;;;14.80;4.35;;;7.80;99.90;;;;;;5018049;28;20058;-74
2022/01/09 09:32:07;;;;;;;24.05;5.82;;;7.80;99.90;;;;;;5051564;28;20442;-74
2022/01/09 09:34:34;;;;;;;21.27;6.38;;;7.80;99.90;;;;;;5019836;28;20064;-74
2022/01/09 09:37:00;;;;;;;23.27;5.85;;;7.80;99.90;;;;;;5018389;28;20032;-74
2022/01/09 09:39:26;;;;;;;21.17;5.90;;;7.70;99.90;;;;;;5018207;28;20271;-74
2022/01/09 09:41:51;;;;;;;27.65;7.03;;;7.70;99.90;;;;;;5018968;28;20045;-74
2022/01/09 09:44:17;;;;;;;27.17;9.60;;;7.70;99.90;;;;;;5019259;28;20084;-74
2022/01/09 09:46:50;;;;;;;31.55;9.35;;;7.70;99.90;;;;;;5017649;28;20096;-74
2022/01/09 09:49:17;;;;;;;32.10;6.97;;;7.70;99.90;;;;;;5032489;28;20110;-74
2022/01/09 09:51:43;;;;;;;21.52;6.95;;;7.80;99.90;;;;;;5018932;28;20018;-74
2022/01/09 09:54:09;;;;;;;34.08;6.45;;;7.80;99.90;;;;;;5018696;28;20045;-74
2022/01/09 09:56:35;;;;;;;28.50;7.78;;;7.80;99.90;;;;;;5050663;28;20486;-75
2022/01/09 09:59:01;;;;;;;30.17;7.70;;;7.80;99.90;;;;;;5017637;28;20413;-75
2022/01/09 10:01:30;;;;;;;25.25;6.95;;;7.80;99.90;;;;;;5018841;28;20077;-75
2022/01/09 10:04:14;;;;;;;30.63;9.10;;;7.80;99.90;;;;;;5017214;28;20057;-76
2022/01/09 10:06:48;;;;;;;32.88;7.25;;;7.80;99.90;;;;;;5017229;28;20032;-75
2022/01/09 10:09:21;;;;;;;31.55;8.77;;;7.90;99.90;;;;;;5049784;28;20052;-75
2022/01/09 10:11:55;;;;;;;25.90;7.75;;;7.90;99.90;;;;;;5017669;28;20018;-75
2022/01/09 10:14:32;;;;;;;32.22;8.20;;;7.90;99.90;;;;;;5017051;28;20137;-76
2022/01/09 10:17:28;;;;;;;25.85;7.05;;;8.00;99.90;;;;;;5049998;28;20406;-75
2022/01/09 10:19:56;;;;;;;31.10;7.93;;;8.00;99.90;;;;;;5013876;28;20040;-75
2022/01/09 10:22:46;;;;;;;23.48;7.25;;;8.00;99.90;;;;;;5050184;28;20081;-75
2022/01/09 10:25:36;;;;;;;28.90;8.27;;;8.10;99.90;;;;;;5050027;28;20025;-75
2022/01/09 10:28:13;;;;;;;30.42;9.82;;;8.20;99.90;;;;;;5049671;28;20033;-76
2022/01/09 10:30:41;;;;;;;28.73;9.68;;;8.30;99.90;;;;;;5018185;28;20018;-75
2022/01/09 10:33:15;;;;;;;35.20;7.50;;;8.40;99.90;;;;;;5017875;28;20030;-75
2022/01/09 10:35:43;;;;;;;30.67;7.25;;;8.50;99.90;;;;;;5016345;28;20014;-76
2022/01/09 10:38:16;;;;;;;40.83;9.55;;;8.60;99.90;;;;;;5016675;28;20057;-76
2022/01/09 10:40:45;;;;;;;29.88;8.95;;;8.60;99.90;;;;;;5017962;28;20022;-76
2022/01/09 10:43:16;;;;;;;28.52;7.07;;;8.70;99.90;;;;;;5016081;28;20030;-76
2022/01/09 10:45:49;;;;;;;27.77;7.38;;;8.70;99.90;;;;;;5015083;28;20014;-75
2022/01/09 10:48:20;;;;;;;24.42;6.72;;;8.80;99.90;;;;;;5017463;28;20094;-75
2022/01/09 10:50:47;;;;;;;24.23;6.32;;;8.80;99.90;;;;;;5017904;28;20351;-75
2022/01/09 10:53:17;;;;;;;19.85;7.85;;;8.80;99.90;;;;;;5015695;28;20045;-76
2022/01/09 10:55:45;;;;;;;24.67;6.68;;;8.80;99.90;;;;;;5017889;28;20025;-75
2022/01/09 10:58:22;;;;;;;26.85;6.72;;;8.80;99.90;;;;;;5018163;28;20498;-76
2022/01/09 11:01:05;;;;;;;31.35;7.82;;;8.80;99.90;;;;;;5018079;28;20013;-76
2022/01/09 11:03:31;;;;;;;40.53;13.25;;;8.80;99.90;;;;;;5018388;28;20052;-75
2022/01/09 11:05:58;;;;;;;17.83;6.25;;;8.80;99.90;;;;;;5017978;28;20101;-76
2022/01/09 11:08:24;;;;;;;17.45;4.90;;;8.80;99.90;;;;;;5017961;28;20029;-75
2022/01/09 11:10:50;;;;;;;20.05;6.15;;;8.80;99.90;;;;;;5018042;28;20445;-75
2022/01/09 11:13:17;;;;;;;25.30;6.10;;;8.80;99.90;;;;;;5018033;28;20076;-75
2022/01/09 11:16:32;;;;;;;20.02;6.03;;;8.80;99.90;;;;;;5017980;28;20044;-75
2022/01/09 11:18:31;;;;;;;17.75;5.50;;;8.70;99.90;;;;;;5007105;28;20137;-75
2022/01/09 11:20:57;;;;;;;20.50;5.78;;;8.70;99.90;;;;;;5016211;28;20109;-75
2022/01/09 11:23:34;;;;;;;16.88;5.72;;;8.70;99.90;;;;;;5015608;28;20046;-75
2022/01/09 11:26:04;;;;;;;26.25;6.75;;;8.60;99.90;;;;;;5005516;28;20026;-76
2022/01/09 11:28:35;;;;;;;20.60;6.43;;;8.60;99.90;;;;;;5017051;28;20022;-75
2022/01/09 11:31:17;;;;;;;25.48;7.28;;;8.50;99.90;;;;;;5045719;28;20289;-75
2022/01/09 11:34:28;;;;;;;29.70;7.20;;;8.50;99.90;;;;;;5017043;28;20018;-74
2022/01/09 11:37:16;;;;;;;22.60;5.55;;;8.50;99.90;;;;;;5029995;28;20073;-75
2022/01/09 11:39:43;;;;;;;20.85;6.72;;;8.50;99.90;;;;;;5016727;28;20022;-75
2022/01/09 11:42:13;;;;;;;21.00;6.88;;;8.50;99.90;;;;;;5016926;28;20022;-75
2022/01/09 11:45:05;;;;;;;31.05;8.02;;;8.50;99.90;;;;;;5016985;28;20029;-75
2022/01/09 11:47:48;;;;;;;65.07;21.85;;;8.40;99.90;;;;;;5014450;28;20072;-75
2022/01/09 11:50:18;;;;;;;29.20;6.50;;;8.50;99.90;;;;;;5017016;28;20022;-75
2022/01/09 11:52:57;;;;;;;17.85;6.45;;;8.50;99.90;;;;;;5016957;28;20072;-75
2022/01/09 11:55:50;;;;;;;43.28;10.38;;;8.50;99.90;;;;;;5017012;28;20022;-75
2022/01/09 11:58:20;;;;;;;26.83;6.68;;;8.50;99.90;;;;;;5016952;28;20120;-75
2022/01/09 12:00:46;;;;;;;27.10;5.78;;;8.50;99.90;;;;;;5017492;28;20022;-75
2022/01/09 12:03:27;;;;;;;40.50;7.50;;;8.50;99.90;;;;;;5015919;28;20038;-75
2022/01/09 12:06:01;;;;;;;29.60;7.57;;;8.50;99.90;;;;;;5016424;28;20034;-75
2022/01/09 12:08:27;;;;;;;17.08;5.97;;;8.50;99.90;;;;;;5016952;28;20053;-75
2022/01/09 12:10:54;;;;;;;32.95;7.25;;;8.50;99.90;;;;;;5017081;28;20507;-75
2022/01/09 12:13:40;;;;;;;22.33;6.75;;;8.50;99.90;;;;;;5015801;28;20037;-75
2022/01/09 12:16:07;;;;;;;30.67;6.88;;;8.40;99.90;;;;;;5015790;28;20040;-75
2022/01/09 12:18:44;;;;;;;22.67;6.20;;;8.50;99.90;;;;;;5017098;28;20378;-75
2022/01/09 12:21:43;;;;;;;22.25;5.75;;;8.40;99.90;;;;;;5017310;28;20026;-75
2022/01/09 12:24:40;;;;;;;15.23;6.10;;;8.40;99.90;;;;;;5015568;28;20034;-75
2022/01/09 12:27:44;;;;;;;11.10;5.20;;;8.50;99.90;;;;;;5015397;28;20026;-75
2022/01/09 12:30:41;;;;;;;16.73;5.85;;;8.50;99.90;;;;;;5015721;28;20033;-75
2022/01/09 12:33:18;;;;;;;23.45;8.10;;;8.60;99.90;;;;;;5016971;28;20022;-75
2022/01/09 12:35:55;;;;;;;19.50;5.82;;;8.60;99.90;;;;;;5013841;28;20572;-75
2022/01/09 12:38:22;;;;;;;17.45;5.35;;;8.60;99.90;;;;;;5023152;28;20050;-76
2022/01/09 12:40:54;;;;;;;15.00;5.45;;;8.60;99.90;;;;;;5019611;28;20022;-76
2022/01/09 12:43:22;;;;;;;22.30;6.80;;;8.60;99.90;;;;;;5020520;28;20026;-76
2022/01/09 12:45:49;;;;;;;29.42;7.60;;;8.60;99.90;;;;;;5020842;28;20053;-76
2022/01/09 12:48:29;;;;;;;14.85;5.28;;;8.60;99.90;;;;;;5019326;28;20030;-74
2022/01/09 12:51:15;;;;;;;26.43;6.70;;;8.60;99.90;;;;;;5019328;28;20018;-76
2022/01/09 12:53:43;;;;;;;21.55;7.03;;;8.50;99.90;;;;;;5020222;28;20034;-75
2022/01/09 12:56:11;;;;;;;23.85;8.68;;;8.50;99.90;;;;;;5020362;28;20030;-75
2022/01/09 12:58:43;;;;;;;24.88;7.85;;;8.50;99.90;;;;;;5020015;28;20029;-75
2022/01/09 13:01:17;;;;;;;21.58;6.72;;;8.40;99.90;;;;;;5018888;28;20044;-75
2022/01/09 13:03:45;;;;;;;20.73;6.93;;;8.50;99.90;;;;;;5019215;28;20022;-76
2022/01/09 13:06:13;;;;;;;19.67;6.68;;;8.40;99.90;;;;;;5020176;28;20034;-75
2022/01/09 13:08:50;;;;;;;14.45;4.97;;;8.40;99.90;;;;;;5018511;28;20088;-75
2022/01/09 13:11:18;;;;;;;22.73;7.03;;;8.40;99.90;;;;;;5020316;28;20017;-76
2022/01/09 13:13:47;;;;;;;21.63;6.40;;;8.40;99.90;;;;;;5019676;28;20505;-75
2022/01/09 13:16:14;;;;;;;27.80;7.35;;;8.40;99.90;;;;;;5019901;28;20036;-76
2022/01/09 13:18:45;;;;;;;27.15;6.97;;;8.40;99.90;;;;;;5018526;28;20435;-76
2022/01/09 13:21:14;;;;;;;26.90;7.85;;;8.30;99.90;;;;;;5051229;28;20026;-76
2022/01/09 13:24:10;;;;;;;25.17;8.13;;;8.40;99.90;;;;;;5019023;28;20025;-76
2022/01/09 13:26:40;;;;;;;24.45;9.32;;;8.40;99.90;;;;;;5018848;28;20042;-76
2022/01/09 13:29:10;;;;;;;25.25;8.48;;;8.30;99.90;;;;;;5018822;28;20022;-75
2022/01/09 13:31:37;;;;;;;20.33;6.88;;;8.30;99.90;;;;;;5019213;28;20430;-75
2022/01/09 13:34:06;;;;;;;26.10;8.55;;;8.30;99.90;;;;;;5017840;28;20021;-76
2022/01/09 13:36:45;;;;;;;35.92;8.20;;;8.30;99.90;;;;;;5019369;28;20037;-76
2022/01/09 13:39:22;;;;;;;22.90;6.53;;;8.40;99.90;;;;;;5019779;28;20482;-76
2022/01/09 13:41:55;;;;;;;16.25;6.05;;;8.40;99.90;;;;;;5019382;28;20060;-76
2022/01/09 13:44:29;;;;;;;21.77;7.45;;;8.40;99.90;;;;;;5019675;28;20025;-76
2022/01/09 13:47:05;;;;;;;21.38;6.90;;;8.40;99.90;;;;;;5020771;28;20034;-75
2022/01/09 13:49:33;;;;;;;19.08;7.78;;;8.40;99.90;;;;;;5015647;28;20022;-76
2022/01/09 13:52:10;;;;;;;26.85;7.93;;;8.40;99.90;;;;;;5018854;28;20398;-75
2022/01/09 13:54:35;;;;;;;18.38;7.65;;;8.40;99.90;;;;;;5019028;28;20025;-75
2022/01/09 13:57:10;;;;;;;26.65;8.18;;;8.40;99.90;;;;;;5019195;28;20037;-76
2022/01/09 13:59:38;;;;;;;28.00;9.30;;;8.40;99.90;;;;;;5017949;28;20557;-76
2022/01/09 14:02:04;;;;;;;17.33;7.35;;;8.40;99.90;;;;;;5017987;28;20113;-76
2022/01/09 14:04:30;;;;;;;20.52;6.57;;;8.40;99.90;;;;;;5019155;28;20091;-76